San Julian, Argentina
Current Conditions -  °F | °C
As of 12:00 PM on Wednesday 26 Nov 2014 (Local Time) from SAWG Reporting Station
Broken Clouds Broken Clouds  
Wind Chill: 59°   Ceiling: 20000
Heat Index: 59°   Visibility: 6mi
Dew Point: 34°   Wind: 30mph
Humidity: 39%   Direction: 250°WSW
Pressure: 29.71"   Gusts: 41mph
Location:  49.31°S, 67.71°W
Report Text: SAWG 261500Z 25026G36KT 9999 FEW030 SCT100BKN200 15/01 Q1006
Loading
Personal Weather Stations






























Interactive Weather Map New forecast layout! Learn more

10-Day Weather Forecast

Advertisements
Track Severe Weather on mobile